createdAt,value
2022-12-15T00:00:19.650Z,99479.66
2022-12-15T00:03:05.518Z,99490.59
2022-12-15T00:05:51.198Z,99506.53
2022-12-15T00:08:36.928Z,99512.88
2022-12-15T00:11:22.565Z,99484.09
2022-12-15T00:14:08.259Z,99486.88
2022-12-15T00:16:54.220Z,99498.59
2022-12-15T00:19:39.741Z,99485.19
2022-12-15T00:22:25.826Z,99519.19
2022-12-15T00:25:11.403Z,99514.28
2022-12-15T00:27:58.030Z,99515.16
2022-12-15T00:30:43.449Z,99528.03
2022-12-15T00:33:30.863Z,99532.16
2022-12-15T00:36:17.693Z,99526.78
2022-12-15T00:38:45.629Z,99512.78
2022-12-15T00:41:15.699Z,99512.59
2022-12-15T00:43:43.224Z,99509.63
2022-12-15T00:46:29.306Z,99524.81
2022-12-15T00:48:56.816Z,99517.22
2022-12-15T00:51:43.240Z,99506.97
2022-12-15T00:54:29.480Z,99518.66
2022-12-15T00:57:15.168Z,99515.88
2022-12-15T01:00:00.940Z,99493.94
2022-12-15T01:02:46.706Z,99507.22
2022-12-15T01:05:32.786Z,99538.09
2022-12-15T01:08:19.177Z,99511.75
2022-12-15T01:11:05.053Z,99527.78
2022-12-15T01:13:50.712Z,99517.84
2022-12-15T01:16:36.235Z,99539.97
2022-12-15T01:19:21.685Z,99529.91
2022-12-15T01:21:49.935Z,99552.84
2022-12-15T01:24:17.257Z,99548.00
2022-12-15T01:26:44.059Z,99556.53
2022-12-15T01:29:11.041Z,99556.53
2022-12-15T01:31:38.048Z,99545.59
2022-12-15T01:34:05.122Z,99559.94
2022-12-15T01:36:32.222Z,99548.19
2022-12-15T01:38:59.191Z,99542.19
2022-12-15T01:41:26.259Z,99517.47
2022-12-15T01:43:53.132Z,99562.69
2022-12-15T01:46:22.491Z,99538.97
2022-12-15T01:48:58.186Z,99569.72
2022-12-15T01:51:39.755Z,99581.69
2022-12-15T01:54:28.313Z,99570.03
2022-12-15T01:57:00.031Z,99580.50
2022-12-15T01:59:33.116Z,99557.84
2022-12-15T02:02:00.636Z,99573.13
2022-12-15T02:04:28.120Z,99572.91
2022-12-15T02:06:55.045Z,99564.09
2022-12-15T02:09:25.541Z,99569.31
2022-12-15T02:12:35.093Z,99547.69
2022-12-15T02:15:20.378Z,99584.22
2022-12-15T02:18:05.017Z,99561.81
2022-12-15T02:20:58.352Z,99591.78
2022-12-15T02:23:46.838Z,99592.69
2022-12-15T02:26:32.498Z,99593.84
2022-12-15T02:29:17.309Z,99600.16
2022-12-15T02:31:54.030Z,99601.16
2022-12-15T02:34:45.733Z,99569.13
2022-12-15T02:37:20.891Z,99598.69
2022-12-15T02:39:47.831Z,99594.47
2022-12-15T02:42:14.897Z,99605.69
2022-12-15T02:45:05.974Z,99603.16
2022-12-15T02:47:46.334Z,99597.16
2022-12-15T02:50:24.411Z,99605.28
2022-12-15T02:53:13.270Z,99603.69
2022-12-15T02:56:02.120Z,99612.38
2022-12-15T02:58:36.691Z,99612.47
2022-12-15T03:01:30.953Z,99618.53
2022-12-15T03:04:02.182Z,99600.84
2022-12-15T03:06:29.356Z,99610.00
2022-12-15T03:08:56.174Z,99620.81
2022-12-15T03:11:23.268Z,99637.69
2022-12-15T03:13:50.607Z,99627.94
2022-12-15T03:16:17.720Z,99621.88
2022-12-15T03:18:44.826Z,99612.59
2022-12-15T03:21:11.785Z,99628.34
2022-12-15T03:23:38.765Z,99615.69
2022-12-15T03:26:06.713Z,99588.41
2022-12-15T03:28:34.479Z,99622.19
2022-12-15T03:31:01.632Z,99624.78
2022-12-15T03:33:28.686Z,99618.44
2022-12-15T03:35:56.137Z,99622.78
2022-12-15T03:38:23.106Z,99631.81
2022-12-15T03:40:50.221Z,99625.41
2022-12-15T03:43:17.446Z,99635.63
2022-12-15T03:45:44.505Z,99650.09
2022-12-15T03:48:11.403Z,99639.31
2022-12-15T03:50:38.344Z,99598.78
2022-12-15T03:53:05.686Z,99606.56
2022-12-15T03:55:33.440Z,99640.06
2022-12-15T03:58:00.750Z,99637.22
2022-12-15T04:00:29.037Z,99653.00
2022-12-15T04:02:56.316Z,99632.91
2022-12-15T04:05:25.955Z,99646.13
2022-12-15T04:07:54.307Z,99648.97
2022-12-15T04:10:22.271Z,99648.50
2022-12-15T04:12:49.612Z,99627.53
2022-12-15T04:15:16.652Z,99644.59
2022-12-15T04:17:43.801Z,99660.41
2022-12-15T04:20:11.318Z,99658.63
2022-12-15T04:22:47.225Z,99633.38
2022-12-15T04:25:42.146Z,99667.25
2022-12-15T04:28:29.062Z,99667.91
2022-12-15T04:31:28.937Z,99664.38
2022-12-15T04:34:18.592Z,99647.66
2022-12-15T04:37:06.869Z,99654.41
2022-12-15T04:39:53.483Z,99671.97
2022-12-15T04:42:39.752Z,99658.53
2022-12-15T04:45:27.013Z,99672.97
2022-12-15T04:48:12.711Z,99641.50
2022-12-15T04:50:58.547Z,99650.75
2022-12-15T04:53:44.375Z,99682.94
2022-12-15T04:56:32.388Z,99658.09
2022-12-15T04:59:18.457Z,99685.91
2022-12-15T05:02:04.520Z,99686.41
2022-12-15T05:04:50.429Z,99669.91
2022-12-15T05:07:36.499Z,99662.41
2022-12-15T05:10:22.926Z,99688.00
2022-12-15T05:13:08.718Z,99667.25
2022-12-15T05:15:54.913Z,99699.03
2022-12-15T05:18:40.921Z,99693.09
2022-12-15T05:21:26.991Z,99683.34
2022-12-15T05:24:12.918Z,99673.78
2022-12-15T05:26:58.702Z,99666.88
2022-12-15T05:29:44.230Z,99690.72
2022-12-15T05:32:13.620Z,99701.78
2022-12-15T05:34:40.740Z,99698.25
2022-12-15T05:37:07.865Z,99686.53
2022-12-15T05:39:35.027Z,99689.97
2022-12-15T05:42:01.970Z,99699.13
2022-12-15T05:44:29.221Z,99680.56
2022-12-15T05:46:56.764Z,99705.59
2022-12-15T05:49:24.478Z,99692.59
2022-12-15T05:51:51.592Z,99697.03
2022-12-15T05:54:19.455Z,99728.06
2022-12-15T05:56:50.565Z,99724.97
2022-12-15T05:59:19.280Z,99702.50
2022-12-15T06:01:46.841Z,99702.81
2022-12-15T06:04:14.361Z,99706.19
2022-12-15T06:06:42.301Z,99727.56
2022-12-15T06:09:09.899Z,99689.00
2022-12-15T06:11:37.762Z,99727.94
2022-12-15T06:14:05.137Z,99721.50
2022-12-15T06:16:33.247Z,99735.03
2022-12-15T06:19:02.107Z,99740.59
2022-12-15T06:21:37.445Z,99716.13
2022-12-15T06:24:06.728Z,99745.75
2022-12-15T06:26:36.981Z,99749.91
2022-12-15T06:29:06.244Z,99765.75
2022-12-15T06:31:34.080Z,99765.75
2022-12-15T06:34:04.972Z,99770.00
2022-12-15T06:36:32.329Z,99758.72
2022-12-15T06:39:00.978Z,99744.75
2022-12-15T06:41:30.481Z,99743.78
2022-12-15T06:43:58.763Z,99778.47
2022-12-15T06:46:28.127Z,99752.34
2022-12-15T06:48:55.754Z,99763.63
2022-12-15T06:51:23.179Z,99771.22
2022-12-15T06:53:54.056Z,99745.16
2022-12-15T06:56:27.272Z,99784.38
2022-12-15T06:58:59.720Z,99795.13
2022-12-15T07:01:27.669Z,99787.66
2022-12-15T07:03:55.795Z,99784.13
2022-12-15T07:06:23.426Z,99793.34
2022-12-15T07:08:52.989Z,99776.53
2022-12-15T07:11:21.229Z,99770.53
2022-12-15T07:13:53.095Z,99787.28
2022-12-15T07:16:21.993Z,99802.84
2022-12-15T07:18:49.421Z,99783.13
2022-12-15T07:21:17.121Z,99773.25
2022-12-15T07:24:00.940Z,99780.63
2022-12-15T07:26:28.951Z,99789.41
2022-12-15T07:28:56.767Z,99813.03
2022-12-15T07:31:24.380Z,99797.50
2022-12-15T07:33:52.813Z,99766.84
2022-12-15T07:36:20.394Z,99785.72
2022-12-15T07:38:50.284Z,99787.88
2022-12-15T07:41:19.801Z,99774.97
2022-12-15T07:44:06.464Z,99809.88
2022-12-15T07:46:36.597Z,99802.34
2022-12-15T07:49:03.777Z,99813.94
2022-12-15T07:51:30.946Z,99787.78
2022-12-15T07:53:58.139Z,99794.28
2022-12-15T07:56:25.165Z,99820.50
2022-12-15T07:58:52.200Z,99819.00
2022-12-15T08:01:19.378Z,99818.09
2022-12-15T08:03:46.703Z,99797.19
2022-12-15T08:06:15.360Z,99811.59
2022-12-15T08:08:44.780Z,99800.31
2022-12-15T08:11:17.048Z,99805.97
2022-12-15T08:16:34.552Z,99767.28
2022-12-15T08:19:02.170Z,99788.91
2022-12-15T08:21:31.393Z,99797.50
2022-12-15T08:23:58.470Z,99779.50
2022-12-15T08:26:30.348Z,99772.19
2022-12-15T08:29:24.473Z,99789.44
2022-12-15T08:31:48.023Z,99781.16
2022-12-15T08:34:15.105Z,99793.31
2022-12-15T08:36:42.306Z,99793.13
2022-12-15T08:39:09.684Z,99786.19
2022-12-15T08:41:36.739Z,99813.47
2022-12-15T08:44:04.263Z,99806.72
2022-12-15T08:46:36.466Z,99809.06
2022-12-15T08:49:04.387Z,99787.53
2022-12-15T08:51:33.000Z,99823.25
2022-12-15T08:54:01.324Z,99814.97
2022-12-15T08:56:30.015Z,99817.38
2022-12-15T08:58:59.276Z,99801.75
2022-12-15T09:01:27.877Z,99792.00
2022-12-15T09:03:56.651Z,99793.78
2022-12-15T09:06:29.469Z,99793.69
2022-12-15T09:08:59.210Z,99784.03
2022-12-15T09:11:27.780Z,99785.59
2022-12-15T09:13:54.913Z,99795.28
2022-12-15T09:16:22.581Z,99810.44
2022-12-15T09:18:55.653Z,99799.53
2022-12-15T09:21:26.385Z,99810.91
2022-12-15T09:23:55.560Z,99777.22
2022-12-15T09:26:23.903Z,99800.72
2022-12-15T09:28:51.813Z,99770.75
2022-12-15T09:31:22.516Z,99791.81
2022-12-15T09:33:52.688Z,99780.59
2022-12-15T09:36:21.091Z,99752.72
2022-12-15T09:38:48.475Z,99758.13
2022-12-15T09:41:15.419Z,99766.38
2022-12-15T09:44:00.926Z,99762.13
2022-12-15T09:46:30.742Z,99764.69
2022-12-15T09:49:03.308Z,99746.53
2022-12-15T09:51:39.791Z,99724.94
2022-12-15T09:54:08.741Z,99721.59
2022-12-15T09:56:54.721Z,99740.25
2022-12-15T09:59:41.730Z,99741.78
2022-12-15T10:02:28.064Z,99745.16
2022-12-15T10:05:16.212Z,99740.84
2022-12-15T10:07:46.601Z,99726.78
2022-12-15T10:10:40.698Z,99716.09
2022-12-15T10:13:18.214Z,99716.78
2022-12-15T10:15:46.831Z,99710.09
2022-12-15T10:19:09.994Z,99710.78
2022-12-15T10:21:37.279Z,99689.97
2022-12-15T10:25:07.872Z,99703.31
2022-12-15T10:27:46.706Z,99668.88
2022-12-15T10:30:16.566Z,99681.72
2022-12-15T10:32:52.014Z,99691.41
2022-12-15T10:35:34.217Z,99704.69
2022-12-15T10:38:06.571Z,99722.72
2022-12-15T10:40:52.001Z,99708.50
2022-12-15T10:43:41.066Z,99721.25
2022-12-15T10:46:23.037Z,99714.94
2022-12-15T10:48:52.983Z,99703.09
2022-12-15T10:51:32.793Z,99706.56
2022-12-15T10:54:13.470Z,99716.09
2022-12-15T10:56:55.587Z,99721.38
2022-12-15T10:59:31.988Z,99727.63
2022-12-15T11:02:23.968Z,99726.59
2022-12-15T11:05:18.481Z,99733.59
2022-12-15T11:07:52.017Z,99711.69
2022-12-15T11:10:29.990Z,99730.69
2022-12-15T11:13:00.167Z,99742.38
2022-12-15T11:15:45.634Z,99744.97
2022-12-15T11:18:23.252Z,99747.34
2022-12-15T11:21:07.892Z,99747.56
2022-12-15T11:23:35.428Z,99750.78
2022-12-15T11:26:22.372Z,99740.31
2022-12-15T11:28:56.458Z,99768.53
2022-12-15T11:31:51.331Z,99748.66
2022-12-15T11:34:25.070Z,99734.25
2022-12-15T11:37:01.381Z,99752.16
2022-12-15T11:39:55.058Z,99729.47
2022-12-15T11:42:56.364Z,99708.72
2022-12-15T11:45:37.716Z,99736.47
2022-12-15T11:48:07.759Z,99725.19
2022-12-15T11:50:37.430Z,99728.00
2022-12-15T11:53:20.095Z,99698.59
2022-12-15T11:55:49.778Z,99724.91
2022-12-15T11:58:32.582Z,99720.75
2022-12-15T12:01:03.453Z,99714.53
2022-12-15T12:04:05.583Z,99708.47
2022-12-15T12:07:17.492Z,99716.09
2022-12-15T12:09:56.434Z,99712.16
2022-12-15T12:12:43.988Z,99717.50
2022-12-15T12:15:41.726Z,99702.56
2022-12-15T12:18:27.464Z,99705.47
2022-12-15T12:21:21.361Z,99706.94
2022-12-15T12:23:52.488Z,99698.78
2022-12-15T12:27:02.924Z,99676.53
2022-12-15T12:30:14.552Z,99676.75
2022-12-15T12:32:54.502Z,99683.78
2022-12-15T12:35:50.758Z,99677.72
2022-12-15T12:38:25.190Z,99636.31
2022-12-15T12:41:02.788Z,99676.78
2022-12-15T12:43:36.838Z,99663.97
2022-12-15T12:46:25.757Z,99665.38
2022-12-15T12:49:04.940Z,99664.31
2022-12-15T12:51:35.804Z,99659.31
2022-12-15T12:54:30.992Z,99642.69
2022-12-15T12:56:58.665Z,99614.28
2022-12-15T12:59:29.051Z,99641.69
2022-12-15T13:01:58.074Z,99607.31
2022-12-15T13:04:33.910Z,99635.19
2022-12-15T13:07:02.428Z,99625.19
2022-12-15T13:09:44.952Z,99599.91
2022-12-15T13:12:52.879Z,99619.00
2022-12-15T13:15:42.595Z,99623.09
2022-12-15T13:18:22.767Z,99600.94
2022-12-15T13:20:58.252Z,99601.09
2022-12-15T13:23:27.391Z,99611.81
2022-12-15T13:25:57.311Z,99599.25
2022-12-15T13:28:30.727Z,99595.72
2022-12-15T13:31:17.077Z,99590.72
2022-12-15T13:33:53.046Z,99587.41
2022-12-15T13:36:38.527Z,99581.66
2022-12-15T13:39:28.340Z,99577.28
2022-12-15T13:44:51.685Z,99543.47
2022-12-15T13:47:30.221Z,99559.31
2022-12-15T13:50:14.801Z,99553.63
2022-12-15T13:53:17.401Z,99552.59
2022-12-15T13:55:52.735Z,99527.91
2022-12-15T13:58:21.955Z,99514.66
2022-12-15T14:00:54.851Z,99536.13
2022-12-15T14:03:22.434Z,99528.00
2022-12-15T14:05:56.831Z,99528.53
2022-12-15T14:08:28.595Z,99548.50
2022-12-15T14:11:06.948Z,99545.69
2022-12-15T14:13:46.901Z,99554.25
2022-12-15T14:16:22.449Z,99551.84
2022-12-15T14:19:20.281Z,99553.91
2022-12-15T14:21:57.965Z,99524.53
2022-12-15T14:27:24.467Z,99517.28
2022-12-15T14:30:29.596Z,99520.38
2022-12-15T14:33:18.526Z,99527.97
2022-12-15T14:35:55.544Z,99530.03
2022-12-15T14:38:31.364Z,99541.78
2022-12-15T14:41:02.091Z,99531.81
2022-12-15T14:43:33.880Z,99508.81
2022-12-15T14:46:11.886Z,99514.75
2022-12-15T14:48:42.008Z,99532.00
2022-12-15T14:51:17.571Z,99527.00
2022-12-15T14:53:49.677Z,99516.38
2022-12-15T14:56:25.712Z,99537.56
2022-12-15T14:59:04.982Z,99507.97
2022-12-15T15:01:42.291Z,99536.72
2022-12-15T15:04:29.587Z,99538.78
2022-12-15T15:07:00.250Z,99499.41
2022-12-15T15:09:33.501Z,99518.38
2022-12-15T15:12:08.061Z,99526.59
2022-12-15T15:14:43.790Z,99513.81
2022-12-15T15:17:14.858Z,99540.25
2022-12-15T15:19:49.565Z,99553.28
2022-12-15T15:22:42.460Z,99531.50
2022-12-15T15:25:22.302Z,99544.53
2022-12-15T15:27:50.004Z,99543.09
2022-12-15T15:30:21.025Z,99510.25
2022-12-15T15:32:55.706Z,99532.63
2022-12-15T15:35:25.321Z,99522.28
2022-12-15T15:37:59.379Z,99516.34
2022-12-15T15:40:27.499Z,99531.78
2022-12-15T15:42:55.676Z,99529.66
2022-12-15T15:45:23.443Z,99482.03
2022-12-15T15:47:52.747Z,99496.53
2022-12-15T15:50:29.227Z,99485.69
2022-12-15T15:52:57.444Z,99472.66
2022-12-15T15:55:37.831Z,99503.09
2022-12-15T15:58:11.401Z,99495.59
2022-12-15T16:00:38.877Z,99497.28
2022-12-15T16:03:06.588Z,99498.41
2022-12-15T16:05:37.344Z,99465.31
2022-12-15T16:08:05.532Z,99470.09
2022-12-15T16:10:32.882Z,99438.56
2022-12-15T16:13:03.392Z,99455.00
2022-12-15T16:15:31.889Z,99425.94
2022-12-15T16:18:03.914Z,99454.91
2022-12-15T16:20:31.039Z,99437.59
2022-12-15T16:23:02.899Z,99444.22
2022-12-15T16:25:59.279Z,99414.59
2022-12-15T16:28:31.517Z,99410.72
2022-12-15T16:30:59.485Z,99425.22
2022-12-15T16:33:26.987Z,99399.81
2022-12-15T16:35:54.785Z,99422.88
2022-12-15T16:38:28.465Z,99412.47
2022-12-15T16:40:57.307Z,99367.53
2022-12-15T16:43:31.456Z,99411.56
2022-12-15T16:46:03.644Z,99396.56
2022-12-15T16:48:31.426Z,99371.88
2022-12-15T16:50:59.624Z,99406.78
2022-12-15T16:53:30.481Z,99396.44
2022-12-15T16:55:59.825Z,99365.06
2022-12-15T16:58:28.866Z,99388.56
2022-12-15T17:00:56.437Z,99363.09
2022-12-15T17:03:26.161Z,99385.53
2022-12-15T17:05:56.329Z,99385.53
2022-12-15T17:08:27.531Z,99364.41
2022-12-15T17:10:54.818Z,99361.06
2022-12-15T17:13:26.600Z,99366.69
2022-12-15T17:15:59.137Z,99366.81
2022-12-15T17:18:26.574Z,99354.00
2022-12-15T17:21:01.465Z,99335.38
2022-12-15T17:23:29.327Z,99360.97
2022-12-15T17:28:44.011Z,99319.19
2022-12-15T17:31:18.803Z,99327.41
2022-12-15T17:33:45.866Z,99322.34
2022-12-15T17:36:15.674Z,99328.66
2022-12-15T17:38:42.835Z,99302.47
2022-12-15T17:41:35.071Z,99282.94
2022-12-15T17:44:31.543Z,99270.41
2022-12-15T17:46:52.051Z,99274.22
2022-12-15T17:49:20.823Z,99254.13
2022-12-15T17:51:50.692Z,99251.69
2022-12-15T17:54:20.128Z,99220.91
2022-12-15T17:56:49.353Z,99222.84
2022-12-15T17:59:20.436Z,99226.06
2022-12-15T18:01:47.664Z,99255.25
2022-12-15T18:04:15.401Z,99231.19
2022-12-15T18:06:46.437Z,99223.66
2022-12-15T18:09:16.461Z,99214.91
2022-12-15T18:11:45.329Z,99208.53
2022-12-15T18:14:18.355Z,99217.44
2022-12-15T18:16:46.361Z,99170.03
2022-12-15T18:19:16.054Z,99182.25
2022-12-15T18:21:43.023Z,99199.94
2022-12-15T18:24:17.215Z,99179.81
2022-12-15T18:26:44.622Z,99183.53
2022-12-15T18:29:14.243Z,99153.31
2022-12-15T18:31:42.431Z,99184.38
2022-12-15T18:34:12.961Z,99161.16
2022-12-15T18:36:40.299Z,99182.41
2022-12-15T18:39:20.930Z,99176.19
2022-12-15T18:41:48.485Z,99146.00
2022-12-15T18:44:23.134Z,99139.84
2022-12-15T18:46:55.095Z,99153.16
2022-12-15T18:49:23.883Z,99151.66
2022-12-15T18:51:51.107Z,99135.56
2022-12-15T18:54:24.222Z,99124.41
2022-12-15T18:56:51.734Z,99132.31
2022-12-15T18:59:19.790Z,99116.66
2022-12-15T19:01:48.957Z,99147.09
2022-12-15T19:04:16.563Z,99148.47
2022-12-15T19:06:47.847Z,99120.53
2022-12-15T19:09:21.190Z,99136.41
2022-12-15T19:12:15.566Z,99131.59
2022-12-15T19:14:43.184Z,99108.66
2022-12-15T19:17:30.553Z,99105.72
2022-12-15T19:20:16.016Z,99107.34
2022-12-15T19:22:44.500Z,99084.97
2022-12-15T19:25:25.094Z,99084.97
2022-12-15T19:28:00.066Z,99074.25
2022-12-15T19:30:41.579Z,99082.41
2022-12-15T19:33:11.308Z,99105.59
2022-12-15T19:35:40.522Z,99098.41
2022-12-15T19:38:11.251Z,99113.06
2022-12-15T19:40:38.813Z,99116.25
2022-12-15T19:43:07.155Z,99091.53
2022-12-15T19:45:34.299Z,99069.69
2022-12-15T19:48:04.541Z,99066.88
2022-12-15T19:50:36.741Z,99088.69
2022-12-15T19:53:10.474Z,99053.19
2022-12-15T19:55:38.757Z,99059.75
2022-12-15T19:58:26.952Z,99075.53
2022-12-15T20:00:57.843Z,99042.22
2022-12-15T20:03:26.216Z,99042.50
2022-12-15T20:05:54.883Z,99081.88
2022-12-15T20:08:25.773Z,99024.88
2022-12-15T20:10:54.291Z,99060.53
2022-12-15T20:13:22.479Z,99058.75
2022-12-15T20:15:49.626Z,99052.13
2022-12-15T20:18:16.649Z,99074.25
2022-12-15T20:20:45.717Z,99039.06
2022-12-15T20:23:29.501Z,99060.81
2022-12-15T20:25:57.216Z,99045.41
2022-12-15T20:28:27.134Z,99043.28
2022-12-15T20:30:56.324Z,99055.50
2022-12-15T20:33:23.468Z,99054.75
2022-12-15T20:35:51.118Z,99046.53
2022-12-15T20:38:21.012Z,99014.47
2022-12-15T20:40:48.561Z,99035.53
2022-12-15T20:43:17.859Z,99047.19
2022-12-15T20:45:47.598Z,99031.41
2022-12-15T20:48:15.671Z,99042.16
2022-12-15T20:50:46.432Z,99025.63
2022-12-15T20:53:19.757Z,99021.06
2022-12-15T20:55:48.074Z,99016.50
2022-12-15T20:58:16.035Z,99015.41
2022-12-15T21:00:43.335Z,99010.53
2022-12-15T21:03:26.473Z,98997.44
2022-12-15T21:05:56.064Z,98997.28
2022-12-15T21:08:26.057Z,98991.94
2022-12-15T21:10:54.587Z,99003.34
2022-12-15T21:13:27.438Z,99003.16
2022-12-15T21:15:54.929Z,98993.72
2022-12-15T21:21:18.891Z,98964.59
2022-12-15T21:23:45.924Z,98952.47
2022-12-15T21:26:15.833Z,98985.69
2022-12-15T21:28:42.786Z,98963.84
2022-12-15T21:31:10.227Z,98970.75
2022-12-15T21:33:37.235Z,98973.06
2022-12-15T21:36:04.623Z,98961.91
2022-12-15T21:38:40.250Z,98959.91
2022-12-15T21:41:16.014Z,98957.78
2022-12-15T21:43:43.672Z,98940.50
2022-12-15T21:46:15.190Z,98950.50
2022-12-15T21:49:01.638Z,98937.63
2022-12-15T21:51:39.042Z,98968.28
2022-12-15T21:54:18.687Z,98952.66
2022-12-15T21:56:48.190Z,98949.84
2022-12-15T21:59:21.947Z,98927.81
2022-12-15T22:01:49.764Z,98956.34
2022-12-15T22:04:23.404Z,98926.69
2022-12-15T22:06:51.115Z,98934.63
2022-12-15T22:09:19.104Z,98956.97
2022-12-15T22:11:48.628Z,98939.88
2022-12-15T22:14:22.366Z,98955.84
2022-12-15T22:16:49.809Z,98924.81
2022-12-15T22:19:17.182Z,98950.91
2022-12-15T22:21:44.130Z,98948.66
2022-12-15T22:24:11.839Z,98922.72
2022-12-15T22:26:40.273Z,98951.06
2022-12-15T22:29:25.822Z,98945.47
2022-12-15T22:31:52.822Z,98940.78
2022-12-15T22:34:24.583Z,98943.13
2022-12-15T22:36:52.099Z,98917.97
2022-12-15T22:39:19.473Z,98912.91
2022-12-15T22:41:50.117Z,98949.63
2022-12-15T22:44:26.182Z,98927.19
2022-12-15T22:46:56.342Z,98939.31
2022-12-15T22:49:29.217Z,98959.25
2022-12-15T22:51:56.330Z,98923.28
2022-12-15T22:54:27.565Z,98955.69
2022-12-15T22:56:59.459Z,98948.78
2022-12-15T22:59:31.937Z,98922.34
2022-12-15T23:02:02.173Z,98951.50
2022-12-15T23:04:30.825Z,98949.00
2022-12-15T23:07:00.221Z,98920.66
2022-12-15T23:09:27.177Z,98942.28
2022-12-15T23:11:54.214Z,98921.72
2022-12-15T23:14:44.986Z,98940.41
2022-12-15T23:17:13.154Z,98930.34
2022-12-15T23:19:47.099Z,98946.16
2022-12-15T23:22:14.488Z,98937.88
2022-12-15T23:24:41.785Z,98909.66
2022-12-15T23:27:12.654Z,98928.66
2022-12-15T23:29:39.947Z,98943.34
2022-12-15T23:32:06.945Z,98934.56
2022-12-15T23:34:35.220Z,98930.59
2022-12-15T23:37:02.580Z,98919.59
2022-12-15T23:39:29.685Z,98901.22
2022-12-15T23:41:56.688Z,98894.69
2022-12-15T23:44:23.610Z,98920.34
2022-12-15T23:46:50.744Z,98914.28
2022-12-15T23:49:17.630Z,98922.13
2022-12-15T23:51:44.659Z,98917.63
2022-12-15T23:54:11.619Z,98921.31
2022-12-15T23:56:39.352Z,98912.69
2022-12-15T23:59:06.631Z,98895.22
